»·PEaware :: DAL9810 KBFI-KPDX

DAL9810 :: KBFI-KPDX

FLIGHT INFORMATION

Flight Status: Arrived
Operator:
Delta Air Lines
More flights by this operator :: More flights under this callsign
Pilot: Kevin M. (7)
Aircraft: BOEING 737-800
(B738)
More flights by this aircraft type
Origin: KBFI Boeing Field/King Co Intl
United States
Destination: KPDX Portland Intl
United States
More flights between these airports :: More routes between these airports
Route: +CBAIN1 BUWZO KRATR2
File this flight plan on PilotEdge
Remarks:
Altitude:
(Current/Filed)
22,000ft
Speed:
(Current/Filed)
468kts
Departed: 04-Aug-20 12:07 PM
Arrived: 04-Aug-20 12:35 PM
Distance/Time
Traveled:
117nm/0:28
Distance/Time
To Go:
Arrived

Flight Plot

Page will automatically refresh every two minutes.

Flight plan parsing failed; only flown route is shown


Map Options




Map Legend


Flown Route
Filed Route
Departure Airport
Arrival Airport
Navaid (VOR, NDB)
Fix

Horizontal Profiles

Position Reports

Time Latitude Longitude Heading Altitude Ground
Speed
04-Aug-20 11:49 47.537039 -122.304963 151 27ft 0kts
04-Aug-20 11:49 47.537039 -122.304963 151 27ft 0kts
04-Aug-20 11:51 47.537039 -122.304963 151 27ft 0kts
04-Aug-20 11:52 47.537039 -122.304963 151 27ft 0kts
04-Aug-20 11:52 47.537039 -122.304963 151 27ft 0kts
04-Aug-20 11:53 47.537039 -122.304963 151 27ft 0kts
04-Aug-20 11:54 47.537039 -122.304963 151 27ft 0kts
04-Aug-20 11:55 47.537039 -122.304963 151 27ft 0kts
04-Aug-20 11:56 47.537039 -122.304963 151 27ft 0kts
04-Aug-20 11:57 47.537039 -122.304963 151 27ft 0kts
04-Aug-20 11:58 47.537039 -122.304963 151 27ft 0kts
04-Aug-20 11:59 47.537039 -122.304963 151 27ft 0kts
04-Aug-20 12:00 47.536375 -122.304467 159 26ft 11kts
04-Aug-20 12:01 47.530563 -122.299923 150 26ft 29kts
04-Aug-20 12:02 47.525142 -122.296753 150 25ft 29kts
04-Aug-20 12:03 47.521433 -122.296752 149 24ft 16kts
04-Aug-20 12:04 47.516640 -122.292778 141 25ft 1kts
04-Aug-20 12:05 47.516617 -122.292620 99 25ft 4kts
04-Aug-20 12:06 47.530973 -122.303294 331 182ft 175kts
04-Aug-20 12:07 47.582044 -122.346457 328 1656ft 255kts
04-Aug-20 12:08 47.631784 -122.423823 308 3652ft 267kts
04-Aug-20 12:09 47.678425 -122.512673 287 7655ft 284kts
04-Aug-20 12:10 47.633679 -122.586936 175 11294ft 292kts
04-Aug-20 12:11 47.547993 -122.552026 164 13336ft 355kts
04-Aug-20 12:12 47.450058 -122.511551 165 16339ft 376kts
04-Aug-20 12:13 47.341664 -122.467415 165 17878ft 423kts
04-Aug-20 12:14 47.226454 -122.420435 165 20132ft 437kts
04-Aug-20 12:15 47.108031 -122.368988 164 22074ft 448kts
04-Aug-20 12:16 46.989428 -122.317444 165 22168ft 446kts
04-Aug-20 12:17 46.867619 -122.300353 191 22161ft 446kts
04-Aug-20 12:18 46.745171 -122.327746 187 22155ft 448kts
04-Aug-20 12:19 46.621323 -122.345434 185 22151ft 448kts
04-Aug-20 12:20 46.497233 -122.359315 185 22140ft 437kts
04-Aug-20 12:21 46.383066 -122.371747 185 22148ft 416kts
04-Aug-20 12:22 46.264997 -122.384480 185 22143ft 433kts
04-Aug-20 12:23 46.149397 -122.396843 185 19232ft 407kts
04-Aug-20 12:24 46.043471 -122.431292 198 15887ft 371kts
04-Aug-20 12:25 45.949344 -122.476501 191 11258ft 367kts
04-Aug-20 12:26 45.851318 -122.463503 169 6500ft 338kts
04-Aug-20 12:27 45.771989 -122.438553 167 6014ft 263kts
04-Aug-20 12:28 45.700964 -122.415512 168 6009ft 260kts
04-Aug-20 12:29 45.634538 -122.396514 172 5860ft 266kts
04-Aug-20 12:30 45.562009 -122.415305 206 3811ft 266kts
04-Aug-20 12:31 45.539422 -122.482896 312 2399ft 199kts
04-Aug-20 12:32 45.570899 -122.534879 302 647ft 150kts
04-Aug-20 12:33 45.590023 -122.583345 299 29ft 96kts
04-Aug-20 12:34 45.591660 -122.593679 208 30ft 8kts
04-Aug-20 12:35 45.591149 -122.594067 207 30ft 0kts
04-Aug-20 12:36 45.591149 -122.594067 207 30ft 0kts
04-Aug-20 12:37 45.591149 -122.594067 207 30ft 0kts
04-Aug-20 12:38 45.591149 -122.594067 207 30ft 0kts

Navigation Log

Ident Type
Flight plan parsing failed, navigation log unavailable